PWSweather.com
Personal Weather Stations
Station Observations

Acton, CA 93510

Lat: 34.47703, Lon: -118.17483

Elevation: 2900

Station Type: Davis Vantage Pro 2

http://www.actonastro.com/weather/current.php

High Low Average
Temperature 59.7°F15.4°C 39.8°F4.3°C 48.4°F9.1°C
Dew Point 33.1°F0.6°C 12.1°F-11.1°C 28.5°F-1.9°C
Winds 14.0 mph 22.5 kmh Calm Calm 6.0 mph SE9.7 kmh SE
Wind Gusts 22.0 mph35.4 kmh -- 9.0 mph14.5 kmh
Humidity 71% 16% 50%
Pressure 30.00 in1015.9 mb 29.85 in1010.8 mb -
Precipitation 0.00 in0.0 mm - -
Hour Temp Dew Point Humidity Winds Wind Gusts Pressure Precip Precip Rate Daily Precip Total
12:00 AM 45.5°F7.5°C 29.4°F-1.4°C 53% Calm Calm -- 29.97 in1014.9 mb 0.00 in0.0 mm 0.00 in/hr0.0 mm/hr 0.00 in0.0 mm
12:15 AM 43.9°F6.6°C 29.2°F-1.6°C 56% 0.2 mph N0.3 kmh N -- 29.97 in1014.9 mb 0.00 in0.0 mm 0.00 in/hr0.0 mm/hr 0.00 in0.0 mm
12:30 AM 42.5°F5.8°C 28.3°F-2.1°C 57% Calm Calm -- 29.97 in1014.9 mb 0.00 in0.0 mm 0.00 in/hr0.0 mm/hr 0.00 in0.0 mm
12:45 AM 41.5°F5.3°C 28.2°F-2.1°C 59% 1.1 mph N1.8 kmh N 2.0 mph3.2 kmh 29.97 in1014.9 mb 0.00 in0.0 mm 0.00 in/hr0.0 mm/hr 0.00 in0.0 mm
01:00 AM 42.5°F5.8°C 28.8°F-1.8°C 58% 0.3 mph N0.5 kmh N 2.0 mph3.2 kmh 29.96 in1014.6 mb 0.00 in0.0 mm 0.00 in/hr0.0 mm/hr 0.00 in0.0 mm
01:15 AM 42.2°F5.7°C 28.4°F-2.0°C 58% Calm Calm 1.0 mph1.6 kmh 29.96 in1014.6 mb 0.00 in0.0 mm 0.00 in/hr0.0 mm/hr 0.00 in0.0 mm
01:30 AM 42.6°F5.9°C 28.9°F-1.7°C 58% 4.2 mph N6.8 kmh N 7.0 mph11.3 kmh 29.95 in1014.2 mb 0.00 in0.0 mm 0.00 in/hr0.0 mm/hr 0.00 in0.0 mm
01:45 AM 44.2°F6.8°C 28.6°F-1.9°C 54% 3.5 mph N5.6 kmh N 6.0 mph9.7 kmh 29.95 in1014.2 mb 0.00 in0.0 mm 0.00 in/hr0.0 mm/hr 0.00 in0.0 mm
02:00 AM 44.2°F6.8°C 29.0°F-1.7°C 55% 6.5 mph N10.5 kmh N 7.0 mph11.3 kmh 29.95 in1014.2 mb 0.00 in0.0 mm 0.00 in/hr0.0 mm/hr 0.00 in0.0 mm
02:15 AM 44.6°F7.0°C 29.4°F-1.4°C 55% 5.9 mph N9.5 kmh N 7.0 mph11.3 kmh 29.95 in1014.2 mb 0.00 in0.0 mm 0.00 in/hr0.0 mm/hr 0.00 in0.0 mm
02:30 AM 44.2°F6.8°C 29.5°F-1.4°C 56% 6.0 mph N9.7 kmh N 12.0 mph19.3 kmh 29.96 in1014.6 mb 0.00 in0.0 mm 0.00 in/hr0.0 mm/hr 0.00 in0.0 mm
02:45 AM 43.8°F6.6°C 29.5°F-1.4°C 57% 5.0 mph N8.0 kmh N 6.0 mph9.7 kmh 29.95 in1014.2 mb 0.00 in0.0 mm 0.00 in/hr0.0 mm/hr 0.00 in0.0 mm
03:00 AM 43.6°F6.4°C 30.2°F-1.0°C 59% 3.2 mph N5.1 kmh N 6.0 mph9.7 kmh 29.95 in1014.2 mb 0.00 in0.0 mm 0.00 in/hr0.0 mm/hr 0.00 in0.0 mm
03:15 AM 43.4°F6.3°C 30.1°F-1.1°C 59% 3.4 mph NNE5.5 kmh NNE 6.0 mph9.7 kmh 29.94 in1013.9 mb 0.00 in0.0 mm 0.00 in/hr0.0 mm/hr 0.00 in0.0 mm
03:30 AM 43.8°F6.6°C 30.8°F-0.7°C 60% 3.7 mph NNE6.0 kmh NNE 6.0 mph9.7 kmh 29.94 in1013.9 mb 0.00 in0.0 mm 0.00 in/hr0.0 mm/hr 0.00 in0.0 mm
03:45 AM 44.1°F6.7°C 31.1°F-0.5°C 60% 2.5 mph NNE4.0 kmh NNE 3.0 mph4.8 kmh 29.94 in1013.9 mb 0.00 in0.0 mm 0.00 in/hr0.0 mm/hr 0.00 in0.0 mm
04:00 AM 43.9°F6.6°C 31.3°F-0.4°C 61% 1.6 mph NE2.6 kmh NE 6.0 mph9.7 kmh 29.93 in1013.5 mb 0.00 in0.0 mm 0.00 in/hr0.0 mm/hr 0.00 in0.0 mm
04:15 AM 44.1°F6.7°C 31.9°F-0.1°C 62% 2.6 mph NE4.2 kmh NE 6.0 mph9.7 kmh 29.95 in1014.2 mb 0.00 in0.0 mm 0.00 in/hr0.0 mm/hr 0.00 in0.0 mm
04:30 AM 44.5°F6.9°C 31.5°F-0.3°C 60% 4.6 mph NE7.4 kmh NE 6.0 mph9.7 kmh 29.96 in1014.6 mb 0.00 in0.0 mm 0.00 in/hr0.0 mm/hr 0.00 in0.0 mm
04:45 AM 44.6°F7.0°C 32.0°F0.0°C 61% 8.4 mph N13.5 kmh N 10.0 mph16.1 kmh 29.96 in1014.6 mb 0.00 in0.0 mm 0.00 in/hr0.0 mm/hr 0.00 in0.0 mm
05:00 AM 44.7°F7.1°C 31.6°F-0.2°C 60% 7.7 mph N12.4 kmh N 13.0 mph20.9 kmh 29.95 in1014.2 mb 0.00 in0.0 mm 0.00 in/hr0.0 mm/hr 0.00 in0.0 mm
05:15 AM 44.3°F6.8°C 32.1°F0.1°C 62% 5.9 mph NNE9.5 kmh NNE 7.0 mph11.3 kmh 29.97 in1014.9 mb 0.00 in0.0 mm 0.00 in/hr0.0 mm/hr 0.00 in0.0 mm
05:30 AM 43.6°F6.4°C 31.4°F-0.3°C 62% 1.2 mph NNE1.9 kmh NNE 4.0 mph6.4 kmh 29.98 in1015.2 mb 0.00 in0.0 mm 0.00 in/hr0.0 mm/hr 0.00 in0.0 mm
05:45 AM 41.8°F5.4°C 30.5°F-0.8°C 64% 0.5 mph NNE0.8 kmh NNE 1.0 mph1.6 kmh 29.99 in1015.6 mb 0.00 in0.0 mm 0.00 in/hr0.0 mm/hr 0.00 in0.0 mm
06:00 AM 41.2°F5.1°C 31.1°F-0.5°C 67% 4.0 mph NNE6.4 kmh NNE 5.0 mph8.0 kmh 29.98 in1015.2 mb 0.00 in0.0 mm 0.00 in/hr0.0 mm/hr 0.00 in0.0 mm
06:15 AM 41.1°F5.1°C 31.3°F-0.4°C 68% 2.6 mph NNE4.2 kmh NNE 3.0 mph4.8 kmh 30.00 in1015.9 mb 0.00 in0.0 mm 0.00 in/hr0.0 mm/hr 0.00 in0.0 mm
06:30 AM 41.2°F5.1°C 31.8°F-0.1°C 69% 3.0 mph NNE4.8 kmh NNE 4.0 mph6.4 kmh 30.00 in1015.9 mb 0.00 in0.0 mm 0.00 in/hr0.0 mm/hr 0.00 in0.0 mm
06:45 AM 41.0°F5.0°C 31.6°F-0.2°C 69% 1.8 mph NNE2.9 kmh NNE 2.0 mph3.2 kmh 30.00 in1015.9 mb 0.00 in0.0 mm 0.00 in/hr0.0 mm/hr 0.00 in0.0 mm
07:00 AM 40.2°F4.6°C 31.1°F-0.5°C 70% 2.0 mph NNE3.2 kmh NNE 5.0 mph8.0 kmh 29.99 in1015.6 mb 0.00 in0.0 mm 0.00 in/hr0.0 mm/hr 0.00 in0.0 mm
07:15 AM 39.8°F4.3°C 31.2°F-0.4°C 71% 0.3 mph NNE0.5 kmh NNE -- 29.99 in1015.6 mb 0.00 in0.0 mm 0.00 in/hr0.0 mm/hr 0.00 in0.0 mm
07:30 AM 40.3°F4.6°C 31.6°F-0.2°C 71% 1.5 mph NNE2.4 kmh NNE 3.0 mph4.8 kmh 29.99 in1015.6 mb 0.00 in0.0 mm 0.00 in/hr0.0 mm/hr 0.00 in0.0 mm
07:45 AM 41.8°F5.4°C 32.7°F0.4°C 70% Calm Calm 2.0 mph3.2 kmh 29.99 in1015.6 mb 0.00 in0.0 mm 0.00 in/hr0.0 mm/hr 0.00 in0.0 mm
08:00 AM 42.7°F5.9°C 32.9°F0.5°C 68% 1.8 mph NNE2.9 kmh NNE 3.0 mph4.8 kmh 29.98 in1015.2 mb 0.00 in0.0 mm 0.00 in/hr0.0 mm/hr 0.00 in0.0 mm
08:15 AM 44.6°F7.0°C 33.1°F0.6°C 64% 5.4 mph NNE8.7 kmh NNE 6.0 mph9.7 kmh 29.98 in1015.2 mb 0.00 in0.0 mm 0.00 in/hr0.0 mm/hr 0.00 in0.0 mm
08:30 AM 47.3°F8.5°C 32.8°F0.4°C 57% 4.3 mph NNE6.9 kmh NNE 5.0 mph8.0 kmh 29.97 in1014.9 mb 0.00 in0.0 mm 0.00 in/hr0.0 mm/hr 0.00 in0.0 mm
08:45 AM 48.0°F8.9°C 33.1°F0.6°C 56% 6.6 mph NNE10.6 kmh NNE 16.0 mph25.7 kmh 29.97 in1014.9 mb 0.00 in0.0 mm 0.00 in/hr0.0 mm/hr 0.00 in0.0 mm
09:00 AM 48.6°F9.2°C 32.7°F0.4°C 54% 8.0 mph NNE12.9 kmh NNE 11.0 mph17.7 kmh 29.97 in1014.9 mb 0.00 in0.0 mm 0.00 in/hr0.0 mm/hr 0.00 in0.0 mm
09:15 AM 49.4°F9.7°C 33.0°F0.6°C 53% 10.9 mph N17.5 kmh N 15.0 mph24.1 kmh 29.96 in1014.6 mb 0.00 in0.0 mm 0.00 in/hr0.0 mm/hr 0.00 in0.0 mm
09:30 AM 49.6°F9.8°C 32.7°F0.4°C 52% 10.2 mph NNE16.4 kmh NNE 16.0 mph25.7 kmh 29.95 in1014.2 mb 0.00 in0.0 mm 0.00 in/hr0.0 mm/hr 0.00 in0.0 mm
09:45 AM 50.1°F10.1°C 32.7°F0.4°C 51% 7.9 mph N12.7 kmh N 11.0 mph17.7 kmh 29.96 in1014.6 mb 0.00 in0.0 mm 0.00 in/hr0.0 mm/hr 0.00 in0.0 mm
10:00 AM 51.0°F10.6°C 32.5°F0.3°C 49% 7.0 mph N11.3 kmh N 13.0 mph20.9 kmh 29.96 in1014.6 mb 0.00 in0.0 mm 0.00 in/hr0.0 mm/hr 0.00 in0.0 mm
10:15 AM 51.3°F10.7°C 32.8°F0.4°C 49% 9.1 mph NNE14.6 kmh NNE 16.0 mph25.7 kmh 29.96 in1014.6 mb 0.00 in0.0 mm 0.00 in/hr0.0 mm/hr 0.00 in0.0 mm
10:30 AM 52.4°F11.3°C 32.8°F0.4°C 47% 8.2 mph NNE13.2 kmh NNE 13.0 mph20.9 kmh 29.96 in1014.6 mb 0.00 in0.0 mm 0.00 in/hr0.0 mm/hr 0.00 in0.0 mm
10:45 AM 53.1°F11.7°C 32.3°F0.2°C 45% 5.0 mph NE8.0 kmh NE 7.0 mph11.3 kmh 29.96 in1014.6 mb 0.00 in0.0 mm 0.00 in/hr0.0 mm/hr 0.00 in0.0 mm
11:00 AM 52.6°F11.4°C 31.8°F-0.1°C 45% 6.3 mph NNE10.1 kmh NNE 8.0 mph12.9 kmh 29.96 in1014.6 mb 0.00 in0.0 mm 0.00 in/hr0.0 mm/hr 0.00 in0.0 mm
11:15 AM 53.5°F11.9°C 32.1°F0.1°C 44% 11.4 mph N18.3 kmh N 18.0 mph29.0 kmh 29.95 in1014.2 mb 0.00 in0.0 mm 0.00 in/hr0.0 mm/hr 0.00 in0.0 mm
11:30 AM 53.3°F11.8°C 32.5°F0.3°C 45% 7.8 mph N12.6 kmh N 9.0 mph14.5 kmh 29.95 in1014.2 mb 0.00 in0.0 mm 0.00 in/hr0.0 mm/hr 0.00 in0.0 mm
11:45 AM 54.7°F12.6°C 31.4°F-0.3°C 41% 4.9 mph N7.9 kmh N 10.0 mph16.1 kmh 29.93 in1013.5 mb 0.00 in0.0 mm 0.00 in/hr0.0 mm/hr 0.00 in0.0 mm
12:00 PM 55.1°F12.8°C 30.6°F-0.8°C 39% 11.6 mph N18.7 kmh N 17.0 mph27.4 kmh 29.92 in1013.2 mb 0.00 in0.0 mm 0.00 in/hr0.0 mm/hr 0.00 in0.0 mm
12:15 PM 56.2°F13.4°C 29.6°F-1.3°C 36% 9.7 mph NNE15.6 kmh NNE 14.0 mph22.5 kmh 29.92 in1013.2 mb 0.00 in0.0 mm 0.00 in/hr0.0 mm/hr 0.00 in0.0 mm
12:30 PM 56.7°F13.7°C 29.3°F-1.5°C 35% 7.8 mph N12.6 kmh N 13.0 mph20.9 kmh 29.91 in1012.9 mb 0.00 in0.0 mm 0.00 in/hr0.0 mm/hr 0.00 in0.0 mm
12:45 PM 57.5°F14.2°C 29.3°F-1.5°C 34% 7.1 mph NE11.4 kmh NE 13.0 mph20.9 kmh 29.90 in1012.5 mb 0.00 in0.0 mm 0.00 in/hr0.0 mm/hr 0.00 in0.0 mm
01:00 PM 57.6°F14.2°C 27.1°F-2.7°C 31% 10.8 mph N17.4 kmh N 17.0 mph27.4 kmh 29.89 in1012.2 mb 0.00 in0.0 mm 0.00 in/hr0.0 mm/hr 0.00 in0.0 mm
01:15 PM 58.6°F14.8°C 23.8°F-4.6°C 26% 7.4 mph N11.9 kmh N 12.0 mph19.3 kmh 29.88 in1011.9 mb 0.00 in0.0 mm 0.00 in/hr0.0 mm/hr 0.00 in0.0 mm
01:30 PM 58.9°F14.9°C 20.1°F-6.6°C 22% 6.7 mph NE10.8 kmh NE 12.0 mph19.3 kmh 29.87 in1011.5 mb 0.00 in0.0 mm 0.00 in/hr0.0 mm/hr 0.00 in0.0 mm
01:45 PM 59.5°F15.3°C 15.9°F-8.9°C 18% 12.2 mph N19.6 kmh N 14.0 mph22.5 kmh 29.86 in1011.2 mb 0.00 in0.0 mm 0.00 in/hr0.0 mm/hr 0.00 in0.0 mm
02:00 PM 59.4°F15.2°C 14.5°F-9.7°C 17% 12.0 mph N19.3 kmh N 13.0 mph20.9 kmh 29.86 in1011.2 mb 0.00 in0.0 mm 0.00 in/hr0.0 mm/hr 0.00 in0.0 mm
02:15 PM 59.7°F15.4°C 13.4°F-10.3°C 16% 13.9 mph N22.4 kmh N 18.0 mph29.0 kmh 29.85 in1010.8 mb 0.00 in0.0 mm 0.00 in/hr0.0 mm/hr 0.00 in0.0 mm
02:30 PM 59.6°F15.3°C 14.7°F-9.6°C 17% 13.1 mph NNE21.1 kmh NNE 18.0 mph29.0 kmh 29.85 in1010.8 mb 0.00 in0.0 mm 0.00 in/hr0.0 mm/hr 0.00 in0.0 mm
02:45 PM 59.2°F15.1°C 13.0°F-10.6°C 16% 14.0 mph N22.5 kmh N 22.0 mph35.4 kmh 29.85 in1010.8 mb 0.00 in0.0 mm 0.00 in/hr0.0 mm/hr 0.00 in0.0 mm
03:00 PM 59.0°F15.0°C 14.2°F-9.9°C 17% 11.6 mph N18.7 kmh N 18.0 mph29.0 kmh 29.86 in1011.2 mb 0.00 in0.0 mm 0.00 in/hr0.0 mm/hr 0.00 in0.0 mm
03:15 PM 58.4°F14.7°C 13.7°F-10.2°C 17% 12.9 mph NNE20.8 kmh NNE 17.0 mph27.4 kmh 29.86 in1011.2 mb 0.00 in0.0 mm 0.00 in/hr0.0 mm/hr 0.00 in0.0 mm
03:30 PM 58.1°F14.5°C 12.1°F-11.1°C 16% 13.9 mph N22.4 kmh N 18.0 mph29.0 kmh 29.85 in1010.8 mb 0.00 in0.0 mm 0.00 in/hr0.0 mm/hr 0.00 in0.0 mm
03:45 PM 57.5°F14.2°C 13.0°F-10.6°C 17% 12.4 mph NNE20.0 kmh NNE 20.0 mph32.2 kmh 29.85 in1010.8 mb 0.00 in0.0 mm 0.00 in/hr0.0 mm/hr 0.00 in0.0 mm
04:00 PM 56.9°F13.8°C 11.1°F-11.6°C 16% 13.9 mph N22.4 kmh N 18.0 mph29.0 kmh 29.86 in1011.2 mb 0.00 in0.0 mm 0.00 in/hr0.0 mm/hr 0.00 in0.0 mm
04:15 PM 56.9°F13.8°C 11.1°F-11.6°C 16% 10.4 mph NNE16.7 kmh NNE 18.0 mph29.0 kmh 29.86 in1011.2 mb 0.00 in0.0 mm 0.00 in/hr0.0 mm/hr 0.00 in0.0 mm
04:30 PM 56.3°F13.5°C 10.6°F-11.9°C 16% 18.0 mph NE29.0 kmh NE 23.0 mph37.0 kmh 29.86 in1011.2 mb 0.00 in0.0 mm 0.00 in/hr0.0 mm/hr 0.00 in0.0 mm
04:45 PM 55.9°F13.3°C 10.3°F-12.1°C 16% 12.9 mph NE20.8 kmh NE 19.0 mph30.6 kmh 29.86 in1011.2 mb 0.00 in0.0 mm 0.00 in/hr0.0 mm/hr 0.00 in0.0 mm
05:00 PM 55.4°F13.0°C 9.9°F-12.3°C 16% 10.8 mph NNE17.4 kmh NNE 16.0 mph25.7 kmh 29.86 in1011.2 mb 0.00 in0.0 mm 0.00 in/hr0.0 mm/hr 0.00 in0.0 mm
05:15 PM 54.7°F12.6°C 7.9°F-13.4°C 15% 14.8 mph NNE23.8 kmh NNE 21.0 mph33.8 kmh 29.87 in1011.5 mb 0.00 in0.0 mm 0.00 in/hr0.0 mm/hr 0.00 in0.0 mm
05:30 PM 54.1°F12.3°C 7.4°F-13.7°C 15% 13.1 mph NNE21.1 kmh NNE 21.0 mph33.8 kmh 29.88 in1011.9 mb 0.00 in0.0 mm 0.00 in/hr0.0 mm/hr 0.00 in0.0 mm
05:45 PM 53.8°F12.1°C 7.1°F-13.8°C 15% 14.7 mph NNE23.7 kmh NNE 16.0 mph25.7 kmh 29.89 in1012.2 mb 0.00 in0.0 mm 0.00 in/hr0.0 mm/hr 0.00 in0.0 mm
06:00 PM 53.1°F11.7°C 8.0°F-13.3°C 16% 13.6 mph N21.9 kmh N 23.0 mph37.0 kmh 29.89 in1012.2 mb 0.00 in0.0 mm 0.00 in/hr0.0 mm/hr 0.00 in0.0 mm
06:15 PM 52.5°F11.4°C 7.5°F-13.6°C 16% 10.3 mph NNE16.6 kmh NNE 14.0 mph22.5 kmh 29.90 in1012.5 mb 0.00 in0.0 mm 0.00 in/hr0.0 mm/hr 0.00 in0.0 mm
06:30 PM 51.7°F10.9°C 8.2°F-13.2°C 17% 7.9 mph NNE12.7 kmh NNE 11.0 mph17.7 kmh 29.90 in1012.5 mb 0.00 in0.0 mm 0.00 in/hr0.0 mm/hr 0.00 in0.0 mm
06:45 PM 51.6°F10.9°C 8.1°F-13.3°C 17% 9.1 mph NE14.6 kmh NE 12.0 mph19.3 kmh 29.90 in1012.5 mb 0.00 in0.0 mm 0.00 in/hr0.0 mm/hr 0.00 in0.0 mm
07:00 PM 51.7°F10.9°C 6.9°F-13.9°C 16% 9.9 mph NNE15.9 kmh NNE 11.0 mph17.7 kmh 29.90 in1012.5 mb 0.00 in0.0 mm 0.00 in/hr0.0 mm/hr 0.00 in0.0 mm
07:15 PM 51.4°F10.8°C 8.0°F-13.3°C 17% 10.2 mph NNE16.4 kmh NNE 15.0 mph24.1 kmh 29.90 in1012.5 mb 0.00 in0.0 mm 0.00 in/hr0.0 mm/hr 0.00 in0.0 mm
07:30 PM 51.7°F10.9°C 6.8°F-14.0°C 16% 13.0 mph NNE20.9 kmh NNE 17.0 mph27.4 kmh 29.90 in1012.5 mb 0.00 in0.0 mm 0.00 in/hr0.0 mm/hr 0.00 in0.0 mm
07:45 PM 51.4°F10.8°C 6.7°F-14.1°C 16% 11.7 mph NNE18.8 kmh NNE 17.0 mph27.4 kmh 29.90 in1012.5 mb 0.00 in0.0 mm 0.00 in/hr0.0 mm/hr 0.00 in0.0 mm
08:00 PM 51.6°F10.9°C 5.4°F-14.8°C 15% 11.3 mph NE18.2 kmh NE 15.0 mph24.1 kmh 29.90 in1012.5 mb 0.00 in0.0 mm 0.00 in/hr0.0 mm/hr 0.00 in0.0 mm
08:15 PM 51.3°F10.7°C 5.1°F-14.9°C 15% 12.9 mph NE20.8 kmh NE 16.0 mph25.7 kmh 29.89 in1012.2 mb 0.00 in0.0 mm 0.00 in/hr0.0 mm/hr 0.00 in0.0 mm
08:30 PM 51.3°F10.7°C 5.1°F-14.9°C 15% 15.5 mph NNE24.9 kmh NNE 20.0 mph32.2 kmh 29.89 in1012.2 mb 0.00 in0.0 mm 0.00 in/hr0.0 mm/hr 0.00 in0.0 mm
08:45 PM 51.0°F10.6°C 3.4°F-15.9°C 14% 12.2 mph NNE19.6 kmh NNE 18.0 mph29.0 kmh 29.89 in1012.2 mb 0.00 in0.0 mm 0.00 in/hr0.0 mm/hr 0.00 in0.0 mm
09:00 PM 50.7°F10.4°C 4.6°F-15.2°C 15% 14.0 mph NNE22.5 kmh NNE 18.0 mph29.0 kmh 29.90 in1012.5 mb 0.00 in0.0 mm 0.00 in/hr0.0 mm/hr 0.00 in0.0 mm
09:15 PM 50.2°F10.1°C 4.2°F-15.4°C 15% 13.4 mph NNE21.6 kmh NNE 17.0 mph27.4 kmh 29.91 in1012.9 mb 0.00 in0.0 mm 0.00 in/hr0.0 mm/hr 0.00 in0.0 mm
09:30 PM 50.1°F10.1°C 2.7°F-16.3°C 14% 13.9 mph NNE22.4 kmh NNE 17.0 mph27.4 kmh 29.91 in1012.9 mb 0.00 in0.0 mm 0.00 in/hr0.0 mm/hr 0.00 in0.0 mm
09:45 PM 50.2°F10.1°C 2.7°F-16.3°C 14% 9.6 mph NE15.4 kmh NE 11.0 mph17.7 kmh 29.91 in1012.9 mb 0.00 in0.0 mm 0.00 in/hr0.0 mm/hr 0.00 in0.0 mm
10:00 PM 50.2°F10.1°C 2.7°F-16.3°C 14% 13.0 mph NNE20.9 kmh NNE 16.0 mph25.7 kmh 29.91 in1012.9 mb 0.00 in0.0 mm 0.00 in/hr0.0 mm/hr 0.00 in0.0 mm
10:15 PM 50.4°F10.2°C 2.9°F-16.2°C 14% 9.8 mph NE15.8 kmh NE 18.0 mph29.0 kmh 29.91 in1012.9 mb 0.00 in0.0 mm 0.00 in/hr0.0 mm/hr 0.00 in0.0 mm
10:30 PM 50.4°F10.2°C 2.9°F-16.2°C 14% 12.2 mph NNE19.6 kmh NNE 16.0 mph25.7 kmh 29.91 in1012.9 mb 0.00 in0.0 mm 0.00 in/hr0.0 mm/hr 0.00 in0.0 mm
10:45 PM 50.4°F10.2°C 2.9°F-16.2°C 14% 11.7 mph NNE18.8 kmh NNE 17.0 mph27.4 kmh 29.91 in1012.9 mb 0.00 in0.0 mm 0.00 in/hr0.0 mm/hr 0.00 in0.0 mm
11:00 PM 50.4°F10.2°C 1.3°F-17.1°C 13% 11.5 mph NNE18.5 kmh NNE 17.0 mph27.4 kmh 29.91 in1012.9 mb 0.00 in0.0 mm 0.00 in/hr0.0 mm/hr 0.00 in0.0 mm
11:15 PM 50.2°F10.1°C 2.7°F-16.3°C 14% 9.4 mph NNE15.1 kmh NNE 13.0 mph20.9 kmh 29.90 in1012.5 mb 0.00 in0.0 mm 0.00 in/hr0.0 mm/hr 0.00 in0.0 mm
11:30 PM 50.1°F10.1°C 2.7°F-16.3°C 14% 12.0 mph NNE19.3 kmh NNE 15.0 mph24.1 kmh 29.90 in1012.5 mb 0.00 in0.0 mm 0.00 in/hr0.0 mm/hr 0.00 in0.0 mm
11:45 PM 49.8°F9.9°C 2.4°F-16.4°C 14% 10.1 mph NNE16.3 kmh NNE 13.0 mph20.9 kmh 29.91 in1012.9 mb 0.00 in0.0 mm 0.00 in/hr0.0 mm/hr 0.00 in0.0 mm